sensor_id;sensor_type;location;lat;lon;timestamp;temperature;humidity
29775;DHT22;16676;51.202;6.774;2023-09-07T00:00:17;27.90;53.90
29775;DHT22;16676;51.202;6.774;2023-09-07T00:04:19;27.90;53.90
29775;DHT22;16676;51.202;6.774;2023-09-07T00:08:23;27.90;53.90
29775;DHT22;16676;51.202;6.774;2023-09-07T00:12:27;27.80;53.90
29775;DHT22;16676;51.202;6.774;2023-09-07T00:16:31;27.80;53.90
29775;DHT22;16676;51.202;6.774;2023-09-07T00:20:34;27.80;53.90
29775;DHT22;16676;51.202;6.774;2023-09-07T00:24:36;27.80;53.90
29775;DHT22;16676;51.202;6.774;2023-09-07T00:28:40;27.80;54.00
29775;DHT22;16676;51.202;6.774;2023-09-07T00:32:41;27.80;54.00
29775;DHT22;16676;51.202;6.774;2023-09-07T00:36:43;27.70;54.00
29775;DHT22;16676;51.202;6.774;2023-09-07T00:40:45;27.70;54.00
29775;DHT22;16676;51.202;6.774;2023-09-07T00:44:49;27.70;54.00
29775;DHT22;16676;51.202;6.774;2023-09-07T00:48:51;27.70;54.10
29775;DHT22;16676;51.202;6.774;2023-09-07T00:52:53;27.70;54.10
29775;DHT22;16676;51.202;6.774;2023-09-07T00:56:56;27.60;54.70
29775;DHT22;16676;51.202;6.774;2023-09-07T01:00:59;27.60;54.20
29775;DHT22;16676;51.202;6.774;2023-09-07T01:05:02;27.60;54.20
29775;DHT22;16676;51.202;6.774;2023-09-07T01:09:10;27.60;54.20
29775;DHT22;16676;51.202;6.774;2023-09-07T01:13:13;27.50;54.10
29775;DHT22;16676;51.202;6.774;2023-09-07T01:17:16;27.50;54.10
29775;DHT22;16676;51.202;6.774;2023-09-07T01:21:19;27.50;54.10
29775;DHT22;16676;51.202;6.774;2023-09-07T01:25:23;27.50;54.10
29775;DHT22;16676;51.202;6.774;2023-09-07T01:29:25;27.50;54.10
29775;DHT22;16676;51.202;6.774;2023-09-07T01:33:30;27.50;54.10
29775;DHT22;16676;51.202;6.774;2023-09-07T01:37:32;27.50;54.20
29775;DHT22;16676;51.202;6.774;2023-09-07T01:41:35;27.40;54.10
29775;DHT22;16676;51.202;6.774;2023-09-07T01:45:37;27.40;54.10
29775;DHT22;16676;51.202;6.774;2023-09-07T01:49:39;27.40;54.20
29775;DHT22;16676;51.202;6.774;2023-09-07T01:53:41;27.30;54.20
29775;DHT22;16676;51.202;6.774;2023-09-07T01:57:44;27.30;54.20
29775;DHT22;16676;51.202;6.774;2023-09-07T02:01:46;27.20;54.40
29775;DHT22;16676;51.202;6.774;2023-09-07T02:05:48;27.10;54.40
29775;DHT22;16676;51.202;6.774;2023-09-07T02:15:09;27.00;54.70
29775;DHT22;16676;51.202;6.774;2023-09-07T02:19:49;27.00;55.30
29775;DHT22;16676;51.202;6.774;2023-09-07T02:24:11;26.90;54.90
29775;DHT22;16676;51.202;6.774;2023-09-07T02:28:33;26.90;55.00
29775;DHT22;16676;51.202;6.774;2023-09-07T02:32:36;26.80;54.90
29775;DHT22;16676;51.202;6.774;2023-09-07T02:36:38;26.80;54.80
29775;DHT22;16676;51.202;6.774;2023-09-07T02:40:40;26.90;54.90
29775;DHT22;16676;51.202;6.774;2023-09-07T02:44:43;26.80;54.80
29775;DHT22;16676;51.202;6.774;2023-09-07T02:48:46;26.80;54.80
29775;DHT22;16676;51.202;6.774;2023-09-07T02:52:48;26.80;54.70
29775;DHT22;16676;51.202;6.774;2023-09-07T02:56:50;26.80;54.70
29775;DHT22;16676;51.202;6.774;2023-09-07T03:00:52;26.80;54.80
29775;DHT22;16676;51.202;6.774;2023-09-07T03:04:55;26.70;54.80
29775;DHT22;16676;51.202;6.774;2023-09-07T03:08:59;26.60;55.00
29775;DHT22;16676;51.202;6.774;2023-09-07T03:18:18;26.40;55.20
29775;DHT22;16676;51.202;6.774;2023-09-07T03:22:42;26.30;55.40
29775;DHT22;16676;51.202;6.774;2023-09-07T03:27:04;26.20;55.50
29775;DHT22;16676;51.202;6.774;2023-09-07T03:31:26;26.10;55.50
29775;DHT22;16676;51.202;6.774;2023-09-07T03:40:46;26.00;55.80
29775;DHT22;16676;51.202;6.774;2023-09-07T03:44:48;26.00;56.00
29775;DHT22;16676;51.202;6.774;2023-09-07T03:48:50;25.90;56.00
29775;DHT22;16676;51.202;6.774;2023-09-07T03:52:52;25.90;56.10
29775;DHT22;16676;51.202;6.774;2023-09-07T03:56:55;25.90;56.10
29775;DHT22;16676;51.202;6.774;2023-09-07T04:00:58;25.90;56.10
29775;DHT22;16676;51.202;6.774;2023-09-07T04:05:01;25.80;56.10
29775;DHT22;16676;51.202;6.774;2023-09-07T04:09:05;25.90;56.30
29775;DHT22;16676;51.202;6.774;2023-09-07T04:13:08;25.80;56.30
29775;DHT22;16676;51.202;6.774;2023-09-07T04:17:10;25.90;56.20
29775;DHT22;16676;51.202;6.774;2023-09-07T04:21:12;26.00;56.10
29775;DHT22;16676;51.202;6.774;2023-09-07T04:25:14;26.00;55.80
29775;DHT22;16676;51.202;6.774;2023-09-07T04:29:18;26.00;55.80
29775;DHT22;16676;51.202;6.774;2023-09-07T04:33:19;26.00;55.80
29775;DHT22;16676;51.202;6.774;2023-09-07T04:37:21;26.00;55.60
29775;DHT22;16676;51.202;6.774;2023-09-07T04:41:23;26.00;55.60
29775;DHT22;16676;51.202;6.774;2023-09-07T04:45:27;26.00;55.60
29775;DHT22;16676;51.202;6.774;2023-09-07T04:49:29;26.00;55.50
29775;DHT22;16676;51.202;6.774;2023-09-07T04:53:32;25.90;55.60
29775;DHT22;16676;51.202;6.774;2023-09-07T04:57:36;25.80;55.60
29775;DHT22;16676;51.202;6.774;2023-09-07T05:01:39;25.80;55.70
29775;DHT22;16676;51.202;6.774;2023-09-07T05:05:41;25.70;55.60
29775;DHT22;16676;51.202;6.774;2023-09-07T05:09:44;25.80;55.60
29775;DHT22;16676;51.202;6.774;2023-09-07T05:13:46;25.90;55.50
29775;DHT22;16676;51.202;6.774;2023-09-07T05:17:49;25.90;55.60
29775;DHT22;16676;51.202;6.774;2023-09-07T05:21:51;25.90;55.60
29775;DHT22;16676;51.202;6.774;2023-09-07T05:25:54;25.70;56.00
29775;DHT22;16676;51.202;6.774;2023-09-07T05:29:56;25.60;56.40
29775;DHT22;16676;51.202;6.774;2023-09-07T05:33:59;25.50;56.80
29775;DHT22;16676;51.202;6.774;2023-09-07T05:38:02;25.50;56.90
29775;DHT22;16676;51.202;6.774;2023-09-07T05:42:04;25.40;57.20
29775;DHT22;16676;51.202;6.774;2023-09-07T05:46:06;25.40;57.50
29775;DHT22;16676;51.202;6.774;2023-09-07T05:50:10;25.30;57.30
29775;DHT22;16676;51.202;6.774;2023-09-07T05:54:12;25.30;57.40
29775;DHT22;16676;51.202;6.774;2023-09-07T05:58:13;25.30;57.40
29775;DHT22;16676;51.202;6.774;2023-09-07T06:02:15;25.30;57.60
29775;DHT22;16676;51.202;6.774;2023-09-07T06:06:19;25.30;57.70
29775;DHT22;16676;51.202;6.774;2023-09-07T06:10:21;25.30;58.00
29775;DHT22;16676;51.202;6.774;2023-09-07T06:14:23;25.30;58.10
29775;DHT22;16676;51.202;6.774;2023-09-07T06:18:25;25.40;58.00
29775;DHT22;16676;51.202;6.774;2023-09-07T06:22:28;25.30;57.90
29775;DHT22;16676;51.202;6.774;2023-09-07T06:26:30;25.30;58.40
29775;DHT22;16676;51.202;6.774;2023-09-07T06:30:32;25.30;58.20
29775;DHT22;16676;51.202;6.774;2023-09-07T06:34:34;25.40;58.10
29775;DHT22;16676;51.202;6.774;2023-09-07T06:38:37;25.40;58.00
29775;DHT22;16676;51.202;6.774;2023-09-07T06:42:39;25.40;57.60
29775;DHT22;16676;51.202;6.774;2023-09-07T06:46:41;25.40;57.50
29775;DHT22;16676;51.202;6.774;2023-09-07T06:50:43;25.40;57.50
29775;DHT22;16676;51.202;6.774;2023-09-07T06:54:46;25.50;57.30
29775;DHT22;16676;51.202;6.774;2023-09-07T06:58:48;25.60;57.20
29775;DHT22;16676;51.202;6.774;2023-09-07T07:02:50;25.50;57.00
29775;DHT22;16676;51.202;6.774;2023-09-07T07:06:52;25.60;56.90
29775;DHT22;16676;51.202;6.774;2023-09-07T07:10:56;25.70;56.20
29775;DHT22;16676;51.202;6.774;2023-09-07T07:14:58;26.20;55.00
29775;DHT22;16676;51.202;6.774;2023-09-07T07:19:00;27.20;52.80
29775;DHT22;16676;51.202;6.774;2023-09-07T07:23:02;28.00;50.70
29775;DHT22;16676;51.202;6.774;2023-09-07T07:27:05;28.60;49.20
29775;DHT22;16676;51.202;6.774;2023-09-07T07:31:07;29.10;48.10
29775;DHT22;16676;51.202;6.774;2023-09-07T07:35:10;29.30;47.30
29775;DHT22;16676;51.202;6.774;2023-09-07T07:39:12;29.20;47.50
29775;DHT22;16676;51.202;6.774;2023-09-07T07:43:15;28.70;48.60
29775;DHT22;16676;51.202;6.774;2023-09-07T07:47:17;28.30;49.80
29775;DHT22;16676;51.202;6.774;2023-09-07T07:51:19;28.00;50.70
29775;DHT22;16676;51.202;6.774;2023-09-07T07:55:21;27.80;51.30
29775;DHT22;16676;51.202;6.774;2023-09-07T07:59:24;27.50;52.90
29775;DHT22;16676;51.202;6.774;2023-09-07T08:03:26;27.20;53.00
29775;DHT22;16676;51.202;6.774;2023-09-07T08:07:28;27.00;53.80
29775;DHT22;16676;51.202;6.774;2023-09-07T08:11:30;26.90;54.20
29775;DHT22;16676;51.202;6.774;2023-09-07T08:15:34;26.80;54.80
29775;DHT22;16676;51.202;6.774;2023-09-07T08:19:36;26.80;54.90
29775;DHT22;16676;51.202;6.774;2023-09-07T08:23:39;26.80;55.00
29775;DHT22;16676;51.202;6.774;2023-09-07T08:27:41;26.70;54.90
29775;DHT22;16676;51.202;6.774;2023-09-07T08:31:46;26.80;55.30
29775;DHT22;16676;51.202;6.774;2023-09-07T08:35:52;26.80;55.50
29775;DHT22;16676;51.202;6.774;2023-09-07T08:39:55;26.90;55.50
29775;DHT22;16676;51.202;6.774;2023-09-07T08:43:59;26.90;55.30
29775;DHT22;16676;51.202;6.774;2023-09-07T08:48:04;26.90;55.60
29775;DHT22;16676;51.202;6.774;2023-09-07T08:52:06;26.90;55.60
29775;DHT22;16676;51.202;6.774;2023-09-07T08:56:09;26.90;55.50
29775;DHT22;16676;51.202;6.774;2023-09-07T09:00:12;26.90;54.50
29775;DHT22;16676;51.202;6.774;2023-09-07T09:04:18;27.00;54.70
29775;DHT22;16676;51.202;6.774;2023-09-07T09:08:22;27.10;54.10
29775;DHT22;16676;51.202;6.774;2023-09-07T09:12:25;27.10;52.90
29775;DHT22;16676;51.202;6.774;2023-09-07T09:16:27;27.20;53.10
29775;DHT22;16676;51.202;6.774;2023-09-07T09:20:30;27.30;52.80
29775;DHT22;16676;51.202;6.774;2023-09-07T09:24:32;27.40;52.40
29775;DHT22;16676;51.202;6.774;2023-09-07T09:28:35;27.40;52.80
29775;DHT22;16676;51.202;6.774;2023-09-07T09:32:37;27.50;52.80
29775;DHT22;16676;51.202;6.774;2023-09-07T09:36:42;27.60;52.80
29775;DHT22;16676;51.202;6.774;2023-09-07T09:40:44;27.60;52.20
29775;DHT22;16676;51.202;6.774;2023-09-07T09:44:47;27.80;52.00
29775;DHT22;16676;51.202;6.774;2023-09-07T09:48:51;27.80;52.00
29775;DHT22;16676;51.202;6.774;2023-09-07T09:52:56;27.80;51.80
29775;DHT22;16676;51.202;6.774;2023-09-07T09:56:59;27.70;51.40
29775;DHT22;16676;51.202;6.774;2023-09-07T10:01:01;27.80;51.70
29775;DHT22;16676;51.202;6.774;2023-09-07T10:05:07;27.90;52.30
29775;DHT22;16676;51.202;6.774;2023-09-07T10:09:12;27.90;52.10
29775;DHT22;16676;51.202;6.774;2023-09-07T10:13:27;27.90;51.90
29775;DHT22;16676;51.202;6.774;2023-09-07T10:17:30;28.10;51.80
29775;DHT22;16676;51.202;6.774;2023-09-07T10:21:39;28.10;52.30
29775;DHT22;16676;51.202;6.774;2023-09-07T10:25:47;28.20;52.20
29775;DHT22;16676;51.202;6.774;2023-09-07T10:29:51;28.30;52.30
29775;DHT22;16676;51.202;6.774;2023-09-07T10:33:54;28.30;51.60
29775;DHT22;16676;51.202;6.774;2023-09-07T10:37:56;28.40;51.70
29775;DHT22;16676;51.202;6.774;2023-09-07T10:41:59;28.40;51.70
29775;DHT22;16676;51.202;6.774;2023-09-07T10:46:01;28.40;51.50
29775;DHT22;16676;51.202;6.774;2023-09-07T10:50:04;28.50;51.40
29775;DHT22;16676;51.202;6.774;2023-09-07T10:54:13;28.60;51.20
29775;DHT22;16676;51.202;6.774;2023-09-07T10:58:25;28.60;51.40
29775;DHT22;16676;51.202;6.774;2023-09-07T11:02:28;28.60;50.80
29775;DHT22;16676;51.202;6.774;2023-09-07T11:06:30;28.70;50.90
29775;DHT22;16676;51.202;6.774;2023-09-07T11:10:33;28.70;50.90
29775;DHT22;16676;51.202;6.774;2023-09-07T11:14:38;28.70;51.00
29775;DHT22;16676;51.202;6.774;2023-09-07T11:18:40;28.80;51.00
29775;DHT22;16676;51.202;6.774;2023-09-07T11:22:42;28.90;51.10
29775;DHT22;16676;51.202;6.774;2023-09-07T11:26:46;29.00;51.20
29775;DHT22;16676;51.202;6.774;2023-09-07T11:30:50;29.00;51.00
29775;DHT22;16676;51.202;6.774;2023-09-07T11:35:03;29.00;51.00
29775;DHT22;16676;51.202;6.774;2023-09-07T11:39:08;29.00;51.20
29775;DHT22;16676;51.202;6.774;2023-09-07T11:43:13;29.00;51.00
29775;DHT22;16676;51.202;6.774;2023-09-07T11:47:15;29.10;50.80
29775;DHT22;16676;51.202;6.774;2023-09-07T11:51:19;29.10;50.70
29775;DHT22;16676;51.202;6.774;2023-09-07T11:55:22;29.20;50.50
29775;DHT22;16676;51.202;6.774;2023-09-07T11:59:24;29.20;50.10
29775;DHT22;16676;51.202;6.774;2023-09-07T12:03:26;29.30;49.80
29775;DHT22;16676;51.202;6.774;2023-09-07T12:07:31;29.40;49.40
29775;DHT22;16676;51.202;6.774;2023-09-07T12:11:33;29.40;49.40
29775;DHT22;16676;51.202;6.774;2023-09-07T12:15:35;29.40;49.50
29775;DHT22;16676;51.202;6.774;2023-09-07T12:19:37;29.50;49.10
29775;DHT22;16676;51.202;6.774;2023-09-07T12:23:43;29.60;49.10
29775;DHT22;16676;51.202;6.774;2023-09-07T12:27:45;29.50;48.10
29775;DHT22;16676;51.202;6.774;2023-09-07T12:31:48;29.60;47.80
29775;DHT22;16676;51.202;6.774;2023-09-07T12:35:50;29.70;47.90
29775;DHT22;16676;51.202;6.774;2023-09-07T12:39:53;29.70;47.20
29775;DHT22;16676;51.202;6.774;2023-09-07T12:43:56;29.90;47.80
29775;DHT22;16676;51.202;6.774;2023-09-07T12:47:58;29.80;47.30
29775;DHT22;16676;51.202;6.774;2023-09-07T12:52:01;29.90;46.70
29775;DHT22;16676;51.202;6.774;2023-09-07T12:56:10;30.00;47.40
29775;DHT22;16676;51.202;6.774;2023-09-07T13:00:13;30.10;47.50
29775;DHT22;16676;51.202;6.774;2023-09-07T13:04:16;30.20;47.80
29775;DHT22;16676;51.202;6.774;2023-09-07T13:08:18;30.10;47.60
29775;DHT22;16676;51.202;6.774;2023-09-07T13:12:22;30.00;46.80
29775;DHT22;16676;51.202;6.774;2023-09-07T13:16:24;30.20;46.40
29775;DHT22;16676;51.202;6.774;2023-09-07T13:20:26;30.20;46.40
29775;DHT22;16676;51.202;6.774;2023-09-07T13:24:28;30.20;45.20
29775;DHT22;16676;51.202;6.774;2023-09-07T13:28:32;30.20;45.30
29775;DHT22;16676;51.202;6.774;2023-09-07T13:32:34;30.20;43.80
29775;DHT22;16676;51.202;6.774;2023-09-07T13:36:36;30.30;43.70
29775;DHT22;16676;51.202;6.774;2023-09-07T13:40:37;30.30;43.80
29775;DHT22;16676;51.202;6.774;2023-09-07T13:44:41;30.40;43.30
29775;DHT22;16676;51.202;6.774;2023-09-07T13:48:46;30.40;43.60
29775;DHT22;16676;51.202;6.774;2023-09-07T13:52:48;30.40;42.80
29775;DHT22;16676;51.202;6.774;2023-09-07T13:56:50;30.40;42.30
29775;DHT22;16676;51.202;6.774;2023-09-07T14:00:53;30.50;42.60
29775;DHT22;16676;51.202;6.774;2023-09-07T14:04:55;30.50;43.20
29775;DHT22;16676;51.202;6.774;2023-09-07T14:08:57;30.60;43.90
29775;DHT22;16676;51.202;6.774;2023-09-07T14:12:59;30.70;44.40
29775;DHT22;16676;51.202;6.774;2023-09-07T14:17:03;30.80;45.00
29775;DHT22;16676;51.202;6.774;2023-09-07T14:21:06;30.80;45.20
29775;DHT22;16676;51.202;6.774;2023-09-07T14:25:08;30.80;45.30
29775;DHT22;16676;51.202;6.774;2023-09-07T14:29:10;30.80;45.50
29775;DHT22;16676;51.202;6.774;2023-09-07T14:33:14;30.80;45.60
29775;DHT22;16676;51.202;6.774;2023-09-07T14:37:16;30.80;45.70
29775;DHT22;16676;51.202;6.774;2023-09-07T14:41:18;30.80;45.80
29775;DHT22;16676;51.202;6.774;2023-09-07T14:45:20;30.80;45.10
29775;DHT22;16676;51.202;6.774;2023-09-07T14:49:23;30.80;45.40
29775;DHT22;16676;51.202;6.774;2023-09-07T14:53:25;30.80;45.50
29775;DHT22;16676;51.202;6.774;2023-09-07T14:57:27;30.80;44.50
29775;DHT22;16676;51.202;6.774;2023-09-07T15:01:29;30.80;45.20
29775;DHT22;16676;51.202;6.774;2023-09-07T15:05:33;30.80;45.30
29775;DHT22;16676;51.202;6.774;2023-09-07T15:09:35;30.70;42.90
29775;DHT22;16676;51.202;6.774;2023-09-07T15:13:37;30.30;39.70
29775;DHT22;16676;51.202;6.774;2023-09-07T15:17:46;30.10;39.60
29775;DHT22;16676;51.202;6.774;2023-09-07T15:21:50;30.20;39.70
29775;DHT22;16676;51.202;6.774;2023-09-07T15:25:52;30.10;40.30
29775;DHT22;16676;51.202;6.774;2023-09-07T15:29:54;30.10;40.40
29775;DHT22;16676;51.202;6.774;2023-09-07T15:33:56;30.30;40.00
29775;DHT22;16676;51.202;6.774;2023-09-07T15:37:59;30.40;39.80
29775;DHT22;16676;51.202;6.774;2023-09-07T15:42:01;30.40;40.00
29775;DHT22;16676;51.202;6.774;2023-09-07T15:46:03;30.40;40.00
29775;DHT22;16676;51.202;6.774;2023-09-07T15:50:05;30.50;40.60
29775;DHT22;16676;51.202;6.774;2023-09-07T15:54:10;30.50;40.70
29775;DHT22;16676;51.202;6.774;2023-09-07T15:58:12;30.70;41.20
29775;DHT22;16676;51.202;6.774;2023-09-07T16:02:15;30.60;40.30
29775;DHT22;16676;51.202;6.774;2023-09-07T16:06:17;30.60;40.30
29775;DHT22;16676;51.202;6.774;2023-09-07T16:10:20;30.70;40.20
29775;DHT22;16676;51.202;6.774;2023-09-07T16:14:22;30.70;40.30
29775;DHT22;16676;51.202;6.774;2023-09-07T16:18:24;30.70;40.50
29775;DHT22;16676;51.202;6.774;2023-09-07T16:22:27;30.60;41.60
29775;DHT22;16676;51.202;6.774;2023-09-07T16:26:30;30.50;41.90
29775;DHT22;16676;51.202;6.774;2023-09-07T16:30:33;30.40;41.50
29775;DHT22;16676;51.202;6.774;2023-09-07T16:34:35;30.50;41.60
29775;DHT22;16676;51.202;6.774;2023-09-07T16:38:37;30.40;41.80
29775;DHT22;16676;51.202;6.774;2023-09-07T16:42:41;30.40;42.50
29775;DHT22;16676;51.202;6.774;2023-09-07T16:46:43;30.40;42.10
29775;DHT22;16676;51.202;6.774;2023-09-07T16:50:45;30.30;42.00
29775;DHT22;16676;51.202;6.774;2023-09-07T16:54:47;30.20;42.30
29775;DHT22;16676;51.202;6.774;2023-09-07T16:58:50;30.30;42.40
29775;DHT22;16676;51.202;6.774;2023-09-07T17:02:53;30.20;42.80
29775;DHT22;16676;51.202;6.774;2023-09-07T17:06:55;30.20;42.60
29775;DHT22;16676;51.202;6.774;2023-09-07T17:11:00;30.20;43.90
29775;DHT22;16676;51.202;6.774;2023-09-07T17:15:04;30.10;44.40
29775;DHT22;16676;51.202;6.774;2023-09-07T17:19:06;30.00;44.90
29775;DHT22;16676;51.202;6.774;2023-09-07T17:23:09;30.00;46.00
29775;DHT22;16676;51.202;6.774;2023-09-07T17:27:11;29.90;45.70
29775;DHT22;16676;51.202;6.774;2023-09-07T17:31:15;29.90;44.90
29775;DHT22;16676;51.202;6.774;2023-09-07T17:35:17;29.80;45.90
29775;DHT22;16676;51.202;6.774;2023-09-07T17:39:19;29.80;46.10
29775;DHT22;16676;51.202;6.774;2023-09-07T17:43:21;29.80;45.80
29775;DHT22;16676;51.202;6.774;2023-09-07T17:47:25;29.80;46.60
29775;DHT22;16676;51.202;6.774;2023-09-07T17:51:27;29.70;46.80
29775;DHT22;16676;51.202;6.774;2023-09-07T17:55:29;29.80;47.80
29775;DHT22;16676;51.202;6.774;2023-09-07T17:59:31;29.70;46.90
29775;DHT22;16676;51.202;6.774;2023-09-07T18:03:34;29.60;47.40
29775;DHT22;16676;51.202;6.774;2023-09-07T18:07:36;29.60;46.90
29775;DHT22;16676;51.202;6.774;2023-09-07T18:11:38;29.50;47.80
29775;DHT22;16676;51.202;6.774;2023-09-07T18:15:45;29.50;47.00
29775;DHT22;16676;51.202;6.774;2023-09-07T18:19:50;29.50;47.80
29775;DHT22;16676;51.202;6.774;2023-09-07T18:23:52;29.50;47.70
29775;DHT22;16676;51.202;6.774;2023-09-07T18:27:54;29.40;47.90
29775;DHT22;16676;51.202;6.774;2023-09-07T18:31:56;29.40;47.80
29775;DHT22;16676;51.202;6.774;2023-09-07T18:36:01;29.40;47.70
29775;DHT22;16676;51.202;6.774;2023-09-07T18:40:04;29.40;48.50
29775;DHT22;16676;51.202;6.774;2023-09-07T18:44:06;29.40;48.00
29775;DHT22;16676;51.202;6.774;2023-09-07T18:48:08;29.50;47.90
29775;DHT22;16676;51.202;6.774;2023-09-07T18:52:12;29.50;48.50
29775;DHT22;16676;51.202;6.774;2023-09-07T18:56:14;29.40;48.60
29775;DHT22;16676;51.202;6.774;2023-09-07T19:00:16;29.30;48.80
29775;DHT22;16676;51.202;6.774;2023-09-07T19:04:18;29.30;48.40
29775;DHT22;16676;51.202;6.774;2023-09-07T19:08:22;29.40;48.80
29775;DHT22;16676;51.202;6.774;2023-09-07T19:12:24;29.30;49.10
29775;DHT22;16676;51.202;6.774;2023-09-07T19:16:26;29.20;49.10
29775;DHT22;16676;51.202;6.774;2023-09-07T19:20:28;29.10;49.40
29775;DHT22;16676;51.202;6.774;2023-09-07T19:24:31;29.10;49.60
29775;DHT22;16676;51.202;6.774;2023-09-07T19:28:33;29.10;50.00
29775;DHT22;16676;51.202;6.774;2023-09-07T19:32:35;29.10;49.90
29775;DHT22;16676;51.202;6.774;2023-09-07T19:36:38;29.00;49.90
29775;DHT22;16676;51.202;6.774;2023-09-07T19:40:43;29.00;50.00
29775;DHT22;16676;51.202;6.774;2023-09-07T19:44:45;29.00;50.10
29775;DHT22;16676;51.202;6.774;2023-09-07T19:48:47;28.90;50.00
29775;DHT22;16676;51.202;6.774;2023-09-07T19:52:50;28.80;50.20
29775;DHT22;16676;51.202;6.774;2023-09-07T19:56:53;28.80;50.20
29775;DHT22;16676;51.202;6.774;2023-09-07T20:00:57;28.70;50.50
29775;DHT22;16676;51.202;6.774;2023-09-07T20:04:59;28.60;50.80
29775;DHT22;16676;51.202;6.774;2023-09-07T20:09:01;28.60;50.70
29775;DHT22;16676;51.202;6.774;2023-09-07T20:13:05;28.60;50.70
29775;DHT22;16676;51.202;6.774;2023-09-07T20:17:07;28.50;50.40
29775;DHT22;16676;51.202;6.774;2023-09-07T20:21:09;28.60;50.70
29775;DHT22;16676;51.202;6.774;2023-09-07T20:25:11;28.60;50.70
29775;DHT22;16676;51.202;6.774;2023-09-07T20:29:14;28.60;50.70
29775;DHT22;16676;51.202;6.774;2023-09-07T20:33:16;28.60;50.30
29775;DHT22;16676;51.202;6.774;2023-09-07T20:37:19;28.60;50.60
29775;DHT22;16676;51.202;6.774;2023-09-07T20:41:21;28.60;50.30
29775;DHT22;16676;51.202;6.774;2023-09-07T20:45:24;28.50;50.80
29775;DHT22;16676;51.202;6.774;2023-09-07T20:49:26;28.40;51.00
29775;DHT22;16676;51.202;6.774;2023-09-07T20:53:28;28.20;51.20
29775;DHT22;16676;51.202;6.774;2023-09-07T20:57:30;28.20;51.40
29775;DHT22;16676;51.202;6.774;2023-09-07T21:01:33;28.20;51.20
29775;DHT22;16676;51.202;6.774;2023-09-07T21:05:36;28.20;51.00
29775;DHT22;16676;51.202;6.774;2023-09-07T21:09:38;28.20;51.20
29775;DHT22;16676;51.202;6.774;2023-09-07T21:13:41;28.10;51.40
29775;DHT22;16676;51.202;6.774;2023-09-07T21:17:45;27.90;51.50
29775;DHT22;16676;51.202;6.774;2023-09-07T21:21:47;27.80;51.70
29775;DHT22;16676;51.202;6.774;2023-09-07T21:25:51;27.70;51.60
29775;DHT22;16676;51.202;6.774;2023-09-07T21:29:54;27.60;51.60
29775;DHT22;16676;51.202;6.774;2023-09-07T21:33:57;27.40;52.00
29775;DHT22;16676;51.202;6.774;2023-09-07T21:37:59;27.40;52.10
29775;DHT22;16676;51.202;6.774;2023-09-07T21:42:02;27.30;52.10
29775;DHT22;16676;51.202;6.774;2023-09-07T21:46:04;27.40;52.00
29775;DHT22;16676;51.202;6.774;2023-09-07T21:50:08;27.40;52.10
29775;DHT22;16676;51.202;6.774;2023-09-07T21:54:10;27.30;52.30
29775;DHT22;16676;51.202;6.774;2023-09-07T21:58:13;27.30;52.20
29775;DHT22;16676;51.202;6.774;2023-09-07T22:02:15;27.20;52.60
29775;DHT22;16676;51.202;6.774;2023-09-07T22:06:18;27.10;52.80
29775;DHT22;16676;51.202;6.774;2023-09-07T22:10:20;27.00;53.00
29775;DHT22;16676;51.202;6.774;2023-09-07T22:14:22;27.00;52.90
29775;DHT22;16676;51.202;6.774;2023-09-07T22:18:24;27.00;53.00
29775;DHT22;16676;51.202;6.774;2023-09-07T22:22:28;26.90;53.10
29775;DHT22;16676;51.202;6.774;2023-09-07T22:26:30;26.90;53.40
29775;DHT22;16676;51.202;6.774;2023-09-07T22:30:32;26.90;53.20
29775;DHT22;16676;51.202;6.774;2023-09-07T22:34:35;26.90;53.30
29775;DHT22;16676;51.202;6.774;2023-09-07T22:38:38;26.80;53.30
29775;DHT22;16676;51.202;6.774;2023-09-07T22:42:40;26.80;53.40
29775;DHT22;16676;51.202;6.774;2023-09-07T22:46:43;26.70;53.40
29775;DHT22;16676;51.202;6.774;2023-09-07T22:50:45;26.70;53.50
29775;DHT22;16676;51.202;6.774;2023-09-07T22:54:50;26.70;53.40
29775;DHT22;16676;51.202;6.774;2023-09-07T22:58:52;26.60;53.50
29775;DHT22;16676;51.202;6.774;2023-09-07T23:02:54;26.50;53.80
29775;DHT22;16676;51.202;6.774;2023-09-07T23:06:56;26.50;54.00
29775;DHT22;16676;51.202;6.774;2023-09-07T23:11:00;26.40;54.20
29775;DHT22;16676;51.202;6.774;2023-09-07T23:15:05;26.20;54.40
29775;DHT22;16676;51.202;6.774;2023-09-07T23:19:08;26.20;54.50
29775;DHT22;16676;51.202;6.774;2023-09-07T23:23:10;26.20;54.70
29775;DHT22;16676;51.202;6.774;2023-09-07T23:27:14;26.10;54.80
29775;DHT22;16676;51.202;6.774;2023-09-07T23:31:16;26.00;55.00
29775;DHT22;16676;51.202;6.774;2023-09-07T23:35:22;25.90;55.20
29775;DHT22;16676;51.202;6.774;2023-09-07T23:39:24;25.90;55.30
29775;DHT22;16676;51.202;6.774;2023-09-07T23:43:27;25.90;55.10
29775;DHT22;16676;51.202;6.774;2023-09-07T23:47:29;25.90;55.10
29775;DHT22;16676;51.202;6.774;2023-09-07T23:51:32;25.90;55.20
29775;DHT22;16676;51.202;6.774;2023-09-07T23:55:34;25.80;55.30
29775;DHT22;16676;51.202;6.774;2023-09-07T23:59:37;25.80;55.30
